Ships in port

Last updated: 28-01-2020 06:35

Ship name Call sign IMO Agent Date Time Berth Arrived From Purpose of call Cargo Loaded in/for Homeport ETD Date ETD Time GT Deadweight Width (BR) DR arr. Length (LOA)
HANS M OUSK2 8981913 KEM-Offshore ApS 28-01-2020 04:45 21 OTHER DENMARK Crew change/Provion/Bunkers ESBJERG 31-01-2020 22:22 139 0 6,8 2,2 31,8
MARIE LOUISE (SH16) DIWD 211588480 Poseidon Muslinger og Rejer A/S 28-01-2020 01:15 14 OTHER DENMARK Discharge Shrimps HARLINGEN 03-02-2020 12:22 82 0 6,0 2,5 24,0
KEY EAST 9HA2992 9525584 Juhl & Ehrhorn ApS 27-01-2020 16:40 69 Gent Load Valletta 28-01-2020 21:00 4242 6480 16,8 6,3 109,0
BIGORANGE XVIII C6LD3 8311314 Blue Water Shipping A/S 27-01-2020 16:35 113 Den Helder Load NASSAU 31-01-2020 12:00 3719 3424 18,0 5,1 76,1
HAVILA HEROY LCCC 9455832 Total E&P Danmark A/S 27-01-2020 04:30 504 DK OFFSHORE INSTALLATIONS Discharge/load Offshore cargo FOSNAVÅG 28-01-2020 19:22 3062 4100 17,6 5,5 80,4
ZEA SERVANT VRRM4 9741126 Blue Water Shipping A/S 26-01-2020 23:45 714 Aveiro Load Hong Kong 28-01-2020 18:11 11619 12302 22,8 5,0 147,0
SAMANTHA (RI 159) OUVG 219002838 Partrederiet RI 159 v/Nicklas Davidsen 26-01-2020 19:00 12 OTHER DENMARK Discharge Shrimps HVIDE SANDE 28-01-2020 22:22 61 0 5,8 2,5 17,2
ESVAGT FROUDE OWWN2 9703461 Esvagt A/S 26-01-2020 16:00 303 OTHER DENMARK Mobilisation Esbjerg 30-01-2020 20:00 4814 3200 17,6 5,7 83,7
MO1 2HCP9 235102532 Dantysk Sandbank Offshore Wind GmbH & Co. KG 26-01-2020 00:10 3 DK OFFSHORE INSTALLATIONS Passenger call Passengers SCARBOROUGH 27-01-2020 15:22 71 0 9,5 2,0 25,0
BOLDER OUYO2 9656993 Northern Offshore Services A/S 25-01-2020 17:40 3 DK OFFSHORE INSTALLATIONS Passenger call Passengers Fredericia 27-01-2020 07:22 118 55 7,0 2,1 20,9
KEM 1 OWQN2 9750866 KEM-Offshore ApS 25-01-2020 17:35 4 DK OFFSHORE INSTALLATIONS Passenger call Passengers Esbjerg 27-01-2020 06:22 127 18 7,5 2,1 26,5
DJURS WIND OZAD2 9657569 Ørsted Horns Rev 2 A/S 25-01-2020 17:20 24 DK OFFSHORE INSTALLATIONS Passenger call Passengers GRENÅ 27-01-2020 07:22 117 22 5,9 2,1 25,1
ORKAMA M OZBO2 219010982 KEM-Offshore ApS 25-01-2020 17:05 21 DK OFFSHORE INSTALLATIONS Passenger call Passengers ESBJERG 27-01-2020 07:22 74 0 4,9 2,1 22,4
KEM 2 OWQP2 9750878 KEM-Offshore ApS 25-01-2020 10:15 23 DK OFFSHORE INSTALLATIONS Passenger call Passengers Esbjerg 31-01-2020 22:22 127 18 7,5 2,1 26,5
SØLØVEN OXQL2 8862569 O.S. Energy GmbH 24-01-2020 16:30 51 OFFSHORE, NORTH SEA Repair ESBJERG 31-01-2020 22:22 390 0 8,5 5,4 46,0
KATJA (E 35) OXEL 220228000 Jan Magnussen / Kutter Katja E 35 24-01-2020 06:30 12 OTHER DENMARK Discharge Shrimps ESBJERG 27-01-2020 18:22 61 0 5,8 2,5 17,0
DITTE JUUL (RI 562) OZWK 219001265 Kutter Ditte Juul Ri 562 23-01-2020 20:00 12 OTHER DENMARK Discharge Shrimps HVIDE SANDE 27-01-2020 12:22 58 0 5,5 2,5 17,2
FORTUNA KINGFISHER OYYS2 4549133 O.S. Energy GmbH 23-01-2020 19:15 308 DK OFFSHORE INSTALLATIONS Crew change/Provion/Bunkers Esbjerg 27-01-2020 22:22 387 406 9,2 4,0 33,5
ARCTIC HUNTER OUWK2 7719832 O.S. Energy GmbH 23-01-2020 18:35 51 DK OFFSHORE INSTALLATIONS Crew change/Provion/Bunkers Esbjerg 31-01-2020 16:22 453 415 9,0 3,8 40,6
ASSISTER OYUJ2 9193783 Total E&P Danmark A/S 23-01-2020 12:30 203 DK OFFSHORE INSTALLATIONS Demobilisation STRUER 01-02-2020 12:00 6536 5010 24,2 6,6 90,3
REYKJANES OVSI2 7392311 Regnskabsbureauet ApS 23-01-2020 07:30 86 DK OFFSHORE INSTALLATIONS Crew change/Provion/Bunkers ESBJERG 29-01-2020 16:00 442 427 8,3 4,2 39,8
WILHELMINA (E 78) OUSS 8718811 Fiskeriselskabet Cardium A/S 20-01-2020 02:30 64 OTHER DENMARK Discharge Bivalves (muslinger) ESBJERG 31-01-2020 16:22 283 316 10,0 2,0 40,2
SDR. NISSUM (L 217) OUJX 220181000 Jan Skov 13-01-2020 23:30 12 OTHER DENMARK Discharge Shrimps THORSMINDE 31-01-2020 10:22 61 0 5,8 2,5 17,2
SIGYN OZHB2 9114361 EM. Z. Svitzer A/S 01-01-2020 00:05 306 OTHER DENMARK Towing Kalundborg 31-01-2020 23:55 485 311 10,8 5,0 33,8
FENJA OYIQ 9189378 Molslinjen A/S 01-01-2020 00:05 209 Nordby Havn, Fanø Passenger call Passengers - cars ESBJERG 31-01-2020 23:55 751 230 13,8 2,5 49,9
MENJA OYIU 9189380 Molslinjen A/S 01-01-2020 00:05 300 Nordby Havn, Fanø Passenger call Passengers - cars ESBJERG 31-01-2020 23:55 751 230 13,8 2,5 49,9
STATHAV 22 OWGA2 9096399 Nordic Marine Oil A/S 01-01-2020 00:05 14 Esbjerg Bunker another vessel Skagen 31-01-2020 23:55 131 0 6,5 2,5 27,4
CICALA MFBZ4 8891443 M/V ST. CICALA / John Cefferty 01-01-2020 00:05 88 Esbjerg Temporary laid up MANCHESTER 31-01-2020 23:55 270 0 8,5 2,0 30,7
SONDERHO OYVH 8946779 Molslinjen A/S 01-01-2020 00:05 209 Nordby Havn, Fanø Passenger call Passengers ESBJERG 31-01-2020 23:55 93 30 6,0 1,5 25,0
FØNIKS SUPPORTER OUBJ2 8661020 Bunker One A/S 01-01-2020 00:05 7 Esbjerg Bunker another vessel københavn 31-01-2020 23:55 226 0 9,0 1,5 25,2
SVITZER HELIOS OWLX2 7321659 EM. Z. Svitzer A/S 01-01-2020 00:05 307 Esbjerg Towing ESBJERG 31-01-2020 23:55 304 650 9,8 4,6 32,9
KIRSTEN GULLEV OU5826 219017273 Nordic Marine Oil A/S 01-01-2020 00:05 14 OTHER DENMARK Bunker another vessel ESBJERG 31-01-2020 23:55 21 70 4,3 1,5 14,4
STATHAV 9 FTJ1312 219017543 Nordic Marine Oil A/S 01-01-2020 00:05 14 Esbjerg Bunker another vessel KØBENHAVN 31-01-2020 23:55 19 0 4,3 1,5 12,4
SOUNDLINK OXFT2 219001789 B B Towing og Diving A/S 01-01-2020 00:05 65 Esbjerg Towing Esbjerg 31-01-2020 23:55 30 0 4,2 2,3 13,0
ELISABETH M OXRF2 4400208 KEM-Offshore ApS 30-12-2019 10:00 21 DK OFFSHORE INSTALLATIONS Passenger call Passengers ESBJERG 31-01-2020 07:22 66 0 4,9 2,1 20,8
MAERSK INVOLVER MCAG6 9753923 GAC Denmark A/S 23-12-2019 09:25 206 DK OFFSHORE INSTALLATIONS Await orders DOUGLAS 31-01-2020 23:55 14908 9746 27,0 7,4 137,6
OLYMPIC DELTA JWOH 9745768 Niels Winther Maritime ApS 23-12-2019 04:20 305 OTHER DENMARK Demobilisation FOSNAVAG 31-01-2020 23:59 5395 3100 19,2 7,0 92,6
MAERSK RESOLUTE 9V9222 8768232 Blue Water Shipping A/S 22-12-2019 12:30 84 OTHER DENMARK Temporary laid up SINGAPORE 30-01-2020 22:22 15589 5000 68,0 6,2 70,0
L/B JILL WD40304 9740304 Jutlandia Terminal A/S 17-12-2019 18:50 55 Wilhelmshaven Await orders NEW ORLEANS 31-01-2020 22:22 3908 1526 41,2 5,0 56,4
OLYMPIC COMMANDER LISU3 9340609 Niels Winther Maritime ApS 14-12-2019 02:10 305 Lindø Havn Temporary laid up Ålesund 31-01-2020 22:22 4787 4800 19,7 6,7 92,9
MASTER EXPRESS OYFW2 9255957 A1 Partner A/S 06-12-2019 08:00 402 Zeebrugge Temporary laid up Fredericia 31-01-2020 12:22 3100 0 19,1 4,3 83,2
SEAJACKS SCYLLA 3FSA3 9698939 Blue Water Shipping A/S 27-11-2019 12:30 76 Odense Discharge/load Panama 31-01-2020 23:55 23641 18907 50,0 8,0 139,0
THOR EXPRESS OXLM2 9104017 A1 Partner A/S 24-11-2019 10:15 52 Cuxhaven Temporary laid up Fredericia 31-01-2020 23:55 3147 4115 19,0 4,5 82,5
NOTUS EXPRESS OXDR2 9186601 A1 Partner A/S 21-11-2019 09:55 401 Thyborøn Temporary laid up FREDERICIA 31-01-2020 22:22 3917 4308 19,7 5,1 83,7
OCEAN ZEPHYR OXCV2 9000625 A1 Ocean Zephyr ApS 07-11-2019 14:45 52 Murmansk Temporary laid up FREDERICIA 31-01-2020 22:22 3000 3476 17,5 4,7 87,1
CONNECTOR EXPRESS OYOJ2 9244568 A1 Partner A/S 16-10-2019 07:45 501 DK OFFSHORE INSTALLATIONS Discharge/load Offshore cargo FREDERICIA 31-01-2020 16:22 4030 4505 19,0 5,2 90,2
WEM 2 MCPB7 9831969 Niels Winther Maritime ApS 13-10-2019 10:50 3 Eemshaven (NLEEM) Passenger call Passengers SUNDERLAND 31-01-2020 07:22 107 0 8,0 2,1 27,4
BIANCA DFOK 8716930 Fiskbúðin Sæbjörg ehf. 02-10-2019 23:55 85 Thyborøn Repair Cuxhaven 31-01-2020 22:22 455 183 8,5 3,8 40,2
SUSANNE DETY 8303276 Fiskbúðin Sæbjörg ehf. 21-09-2019 07:10 85 Thyborøn Repair CUXHAVEN 31-01-2020 22:22 492 200 9,6 5,5 35,1
MARGRETHE M OVOR2 9999999 KEM-Offshore ApS 13-08-2019 12:40 21 DK OFFSHORE INSTALLATIONS Passenger call Passengers ESBJERG 31-01-2020 15:22 49 0 5,0 2,0 19,8
DANMARK OXDK 5086279 Esbjerg Shipyard 25-06-2019 08:55 85 Rønne Repair Copenhagen 05-03-2020 22:22 737 0 10,1 4,9 65,0
SEA COMFORT OUZK2 9674282 Selskabet af 29 oktober A/S under konkurs 21-06-2019 11:00 5 Borkum I. Crew change/Provion/Bunkers Grenaa 31-01-2020 12:22 326 0 11,3 2,8 25,3
LYØ (MHV 904) OVLD 219000161 Lokal Støtte Element Varde 20-06-2019 00:05 307 Helgoland I. Environmental protection Esbjerg 31-01-2020 22:22 100 0 5,6 3,6 27,2
PACIFIC OSPREY 5BUF3 9621704 Swire Blue Ocean 07-04-2019 00:40 117 Rotterdam Demobilisation Limassol 31-01-2020 23:55 24586 13155 49,0 5,5 161,3
DI-JE (E 61) OWFZ 5128062 Partsrederiet E 61 Di-Je 03-02-2019 17:30 12 OTHER DENMARK Discharge Shrimps ESBJERG 31-01-2020 19:22 48 0 6,5 2,5 20,0
HEIMDAL OXQN2 9999999 KEM-Offshore ApS 10-10-2018 14:00 21 DK OFFSHORE INSTALLATIONS Passenger call Passengers ESBJERG 31-01-2020 07:22 19 10 5,0 1,5 16,1
MADOG V4DR 6615467 Malta Towage Limited 14-09-2018 14:00 89 Esbjerg Temporary laid up BASSETERRE - ST KITTS 31-01-2020 23:55 185 0 7,2 3,7 25,7
KURBERG OW2361 8600064 Thor P/F Ltd. 16-07-2018 18:35 88 Other ports, Færø Islands Temporary laid up Torshavn 31-01-2020 23:55 488 488 8,9 3,5 38,6
TORSVIK OZ2029 7807316 Thor P/F Ltd. 13-07-2018 09:30 88 Las Palmas Load Hosvik 31-01-2020 23:55 370 0 8,5 3,6 39,2
COLGA 9V9536 8751473 Dixstone Holding LtD 24-05-2018 06:22 78 OTHER DENMARK Repair Singapore 31-01-2020 23:59 9352 0 86,3 9,8 74,7
SALLING OUIG2 7431571 Salling Offshore-Service ApS 21-05-2018 18:55 59 OTHER DENMARK Crew change/Provion/Bunkers Esbjerg 31-12-2020 23:22 370 300 7,2 4,6 37,9